Time;durP1;ratioP1;P1;durP2;ratioP2;P2;SDS_P1;SDS_P2;PMS_P1;PMS_P2;Temp;Humidity;BMP_temperature;BMP_pressure;BME280_temperature;BME280_humidity;BME280_pressure;Samples;Min_cycle;Max_cycle;Signal;HPM_P1;HPM_P2
2023/12/16 00:02:30;;;;;;;12.93;3.30;;;6.50;99.90;;;;;;4872597;29;20063;-96
2023/12/16 00:05:15;;;;;;;;;;;;;;;;;;;;;
2023/12/16 00:08:38;;;;;;;13.33;3.33;;;7.10;99.90;;;;;;4861877;23;20027;-96
2023/12/16 00:11:10;;;;;;;13.13;3.50;;;6.70;99.90;;;;;;4914021;23;20051;-96
2023/12/16 00:13:41;;;;;;;14.03;3.30;;;7.60;99.90;;;;;;4903407;29;20079;-96
2023/12/16 00:16:27;;;;;;;11.80;3.47;;;7.30;99.90;;;;;;4890306;29;20052;-95
2023/12/16 00:18:59;;;;;;;12.10;3.10;;;7.50;99.90;;;;;;4905827;29;20072;-96
2023/12/16 00:21:38;;;;;;;;;;;;;;;;;;;;;
2023/12/16 00:24:55;;;;;;;16.43;3.77;;;8.10;99.90;;;;;;4889540;29;20064;-95
2023/12/16 00:27:38;;;;;;;12.53;3.27;;;8.20;99.90;;;;;;4906875;29;20063;-96
2023/12/16 00:30:23;;;;;;;;;;;;;;;;;;;;;
2023/12/16 00:33:04;;;;;;;12.10;3.75;;;7.90;99.90;;;;;;4910182;29;20048;-95
2023/12/16 00:35:42;;;;;;;13.63;3.33;;;8.40;99.90;;;;;;4890751;29;20053;-96
2023/12/16 00:41:04;;;;;;;;;;;;;;;;;;;;;
2023/12/16 00:46:46;;;;;;;15.93;3.77;;;7.20;99.90;;;;;;4965671;23;20056;-96
2023/12/16 00:50:04;;;;;;;12.63;3.23;;;6.50;99.90;;;;;;4911995;29;20052;-95
2023/12/16 00:52:49;;;;;;;9.73;2.90;;;7.30;99.90;;;;;;4837843;23;21463;-95
2023/12/16 00:56:05;;;;;;;12.20;3.17;;;7.30;99.90;;;;;;4910515;29;20059;-95
2023/12/16 01:01:53;;;;;;;13.87;3.30;;;7.80;99.90;;;;;;4909216;29;20060;-96
2023/12/16 01:04:27;;;;;;;13.63;3.30;;;7.10;99.90;;;;;;4912452;29;20054;-95
2023/12/16 01:09:55;;;;;;;15.17;3.47;;;7.10;99.90;;;;;;5034775;23;20060;-96
2023/12/16 01:18:45;;;;;;;11.57;3.10;;;7.10;99.90;;;;;;4958368;23;20063;31
2023/12/16 01:21:59;;;;;;;13.60;3.50;;;8.40;99.90;;;;;;4905671;23;20465;-95
2023/12/16 01:24:46;;;;;;;12.10;3.20;;;7.00;99.90;;;;;;4890264;29;20060;-96
2023/12/16 01:27:27;;;;;;;11.00;3.03;;;7.70;99.90;;;;;;4891838;29;20568;-96
2023/12/16 01:37:56;;;;;;;12.20;3.20;;;7.00;99.90;;;;;;4997781;23;20103;-96
2023/12/16 01:40:15;;;;;;;10.85;3.10;;;7.00;99.90;;;;;;4913276;23;20052;-95
2023/12/16 01:42:49;;;;;;;17.43;3.93;;;6.80;99.90;;;;;;4907142;29;20057;-95
2023/12/16 01:45:19;;;;;;;14.37;3.70;;;7.70;99.90;;;;;;4894304;29;20056;-96
2023/12/16 01:47:59;;;;;;;13.93;3.20;;;7.10;99.90;;;;;;4893235;29;20041;-96
2023/12/16 01:55:41;;;;;;;11.93;2.97;;;6.90;99.90;;;;;;4910100;29;20051;-96
2023/12/16 01:58:16;;;;;;;16.17;3.53;;;5.80;99.90;;;;;;4895358;29;20060;-95
2023/12/16 02:00:47;;;;;;;14.20;3.30;;;6.70;99.90;;;;;;4909642;29;20052;-96
2023/12/16 02:03:32;;;;;;;11.37;2.80;;;5.40;99.90;;;;;;4908756;29;20044;-95
2023/12/16 02:06:16;;;;;;;13.10;3.00;;;6.90;99.90;;;;;;4893919;29;20084;-96
2023/12/16 02:08:45;;;;;;;15.18;2.85;;;6.40;99.90;;;;;;4894316;29;20087;-96
2023/12/16 02:11:20;;;;;;;12.50;3.47;;;8.30;99.90;;;;;;4912796;29;20068;-95
2023/12/16 02:14:14;;;;;;;13.77;3.63;;;5.60;99.90;;;;;;4897033;29;20048;-96
2023/12/16 02:16:54;;;;;;;;;;;;;;;;;;;;;
2023/12/16 02:23:38;;;;;;;13.10;3.07;;;7.30;99.90;;;;;;4898086;29;20049;-95
2023/12/16 02:42:07;;;;;;;12.70;3.07;;;6.40;99.90;;;;;;5099902;23;20056;-96
2023/12/16 02:44:38;;;;;;;14.70;4.13;;;7.80;99.90;;;;;;4911409;29;20088;-94
2023/12/16 02:47:25;;;;;;;12.23;3.37;;;5.80;99.90;;;;;;4915242;23;20067;-95
2023/12/16 02:49:51;;;;;;;13.83;3.57;;;6.40;99.90;;;;;;4908173;29;20056;-95
2023/12/16 02:52:32;;;;;;;13.07;3.03;;;6.40;99.90;;;;;;4911564;23;20068;-95
2023/12/16 02:55:14;;;;;;;13.93;3.50;;;7.90;99.90;;;;;;4909219;29;20165;-95
2023/12/16 03:16:33;;;;;;;14.00;3.10;;;6.00;99.90;;;;;;4994318;23;20048;-95
2023/12/16 03:19:31;;;;;;;11.40;3.63;;;5.50;99.90;;;;;;4914142;29;20089;-95
2023/12/16 03:23:02;;;;;;;17.87;3.70;;;6.00;99.90;;;;;;4925077;23;20067;-94
2023/12/16 03:29:56;;;;;;;10.50;3.30;;;5.30;99.90;;;;;;4923602;29;20055;-94
2023/12/16 03:32:22;;;;;;;14.60;3.50;;;5.10;99.90;;;;;;4915928;29;20453;-94
2023/12/16 03:34:48;;;;;;;16.00;3.70;;;7.40;99.90;;;;;;4919421;23;20107;-95
2023/12/16 03:37:17;;;;;;;11.47;3.53;;;6.30;99.90;;;;;;4918659;23;20048;-94
2023/12/16 03:39:48;;;;;;;14.90;3.50;;;7.10;99.90;;;;;;4910205;29;20108;-94
2023/12/16 03:42:14;;;;;;;16.87;3.93;;;5.60;99.90;;;;;;4911111;29;20044;-95
2023/12/16 03:44:50;;;;;;;12.40;3.27;;;4.60;99.90;;;;;;4923120;23;20067;-94
2023/12/16 03:47:16;;;;;;;13.20;3.50;;;6.20;99.90;;;;;;4925079;29;20028;-95
2023/12/16 03:49:45;;;;;;;13.67;3.17;;;4.60;99.90;;;;;;4927237;29;20064;-94
2023/12/16 03:52:11;;;;;;;19.17;3.97;;;5.60;99.90;;;;;;4927747;29;20032;-94
2023/12/16 03:55:07;;;;;;;14.50;3.53;;;5.80;99.90;;;;;;4926225;29;20044;-94
2023/12/16 03:57:34;;;;;;;15.23;3.33;;;5.70;99.90;;;;;;4927875;29;20087;-95
2023/12/16 04:00:00;;;;;;;16.73;3.93;;;5.70;99.90;;;;;;4927652;29;20036;-94
2023/12/16 04:02:41;;;;;;;16.97;4.10;;;5.60;99.90;;;;;;4918635;29;20040;-94
2023/12/16 04:08:44;;;;;;;16.87;4.30;;;5.50;99.90;;;;;;4948334;23;20132;-94
2023/12/16 04:11:29;;;;;;;13.20;3.57;;;5.10;99.90;;;;;;4927670;29;20076;-94
2023/12/16 04:17:17;;;;;;;13.63;3.33;;;5.90;99.90;;;;;;4869271;29;20057;-94
2023/12/16 04:19:53;;;;;;;17.00;3.60;;;7.10;99.90;;;;;;4860551;29;20047;-94
2023/12/16 04:22:25;;;;;;;12.70;3.40;;;5.70;99.90;;;;;;4854559;29;20049;-94
2023/12/16 04:24:57;;;;;;;16.07;3.43;;;5.70;99.90;;;;;;4852858;29;20113;-94
2023/12/16 04:30:56;;;;;;;14.03;3.10;;;4.70;99.90;;;;;;5921387;23;20023;-95
2023/12/16 04:33:49;;;;;;;12.50;3.43;;;5.80;99.90;;;;;;4925261;29;20503;-94
2023/12/16 04:36:22;;;;;;;14.70;3.20;;;4.70;99.90;;;;;;4904519;29;20060;-94
2023/12/16 04:39:09;;;;;;;16.33;3.93;;;5.80;99.90;;;;;;4821295;29;20069;-94
2023/12/16 04:41:38;;;;;;;24.02;9.88;;;5.70;99.90;;;;;;4900011;29;20067;-94
2023/12/16 04:44:16;;;;;;;19.47;7.43;;;5.20;99.90;;;;;;4892779;29;20052;-94
2023/12/16 04:50:09;;;;;;;18.23;6.20;;;5.50;99.90;;;;;;4941513;23;20044;-94
2023/12/16 04:56:16;;;;;;;13.33;4.00;;;6.60;99.90;;;;;;4953352;23;20539;-94
2023/12/16 04:58:57;;;;;;;20.90;3.73;;;6.10;99.90;;;;;;4909317;29;20066;-94
2023/12/16 05:01:23;;;;;;;15.67;4.07;;;5.50;99.90;;;;;;4910874;29;20507;-94
2023/12/16 05:04:13;;;;;;;33.10;13.13;;;4.40;99.90;;;;;;4910278;29;20076;-94
2023/12/16 05:06:51;;;;;;;17.90;3.60;;;4.80;99.90;;;;;;5030524;23;20646;-95
2023/12/16 05:09:20;;;;;;;16.70;5.33;;;5.80;99.90;;;;;;4914826;29;20104;-94
2023/12/16 05:11:48;;;;;;;16.77;3.73;;;6.20;99.90;;;;;;4914138;29;20071;-95
2023/12/16 05:14:16;;;;;;;14.90;3.80;;;6.80;99.90;;;;;;4924679;23;20057;-94
2023/12/16 05:16:42;;;;;;;13.63;4.03;;;7.20;99.90;;;;;;4893383;29;20055;-95
2023/12/16 05:19:08;;;;;;;14.23;3.40;;;5.60;99.90;;;;;;4897405;29;20048;-95
2023/12/16 05:21:36;;;;;;;14.30;3.60;;;4.60;99.90;;;;;;4889769;29;20063;-96
2023/12/16 05:24:02;;;;;;;13.70;3.57;;;5.60;99.90;;;;;;4892849;29;20108;-95
2023/12/16 05:26:39;;;;;;;18.03;4.17;;;5.60;99.90;;;;;;4893777;29;20068;-95
2023/12/16 05:29:05;;;;;;;15.20;3.87;;;5.50;99.90;;;;;;4910674;29;20033;-93
2023/12/16 05:31:31;;;;;;;17.30;4.27;;;5.60;99.90;;;;;;4906711;29;20039;-94
2023/12/16 05:34:02;;;;;;;16.23;3.87;;;6.00;99.90;;;;;;4921868;29;20048;-95
2023/12/16 05:40:09;;;;;;;16.83;4.03;;;5.30;99.90;;;;;;4915367;29;20051;-94
2023/12/16 05:42:58;;;;;;;16.37;6.77;;;5.30;99.90;;;;;;4898882;29;20056;-94
2023/12/16 05:45:27;;;;;;;19.67;6.70;;;5.30;99.90;;;;;;4894304;29;20056;-94
2023/12/16 05:47:53;;;;;;;15.83;4.37;;;5.30;99.90;;;;;;4893236;29;20112;-96
2023/12/16 05:50:19;;;;;;;24.07;13.57;;;7.00;99.90;;;;;;4891041;29;20071;-95
2023/12/16 05:52:48;;;;;;;17.80;4.87;;;5.40;99.90;;;;;;4890282;29;20052;-95
2023/12/16 05:55:18;;;;;;;17.23;4.33;;;5.40;99.90;;;;;;4893431;29;20044;-95
2023/12/16 05:57:47;;;;;;;16.83;4.63;;;5.20;99.90;;;;;;4892049;29;20105;-94
2023/12/16 06:03:15;;;;;;;18.23;4.60;;;5.30;99.90;;;;;;4916322;23;20094;-94
2023/12/16 06:05:47;;;;;;;20.87;4.77;;;5.30;99.90;;;;;;4894746;29;20083;-95
2023/12/16 06:08:13;;;;;;;20.83;6.90;;;5.40;99.90;;;;;;4891904;29;20080;-94
2023/12/16 06:10:45;;;;;;;14.80;4.20;;;5.40;99.90;;;;;;4892468;29;20060;-94
2023/12/16 06:13:23;;;;;;;15.53;4.67;;;5.60;99.90;;;;;;4894603;29;20394;-95
2023/12/16 06:15:53;;;;;;;17.77;6.93;;;5.10;99.90;;;;;;4892937;29;20063;-95
2023/12/16 06:18:19;;;;;;;16.63;4.53;;;5.30;99.90;;;;;;4890417;29;20036;-95
2023/12/16 06:20:47;;;;;;;18.80;6.60;;;5.70;99.90;;;;;;4891886;29;20105;-95
2023/12/16 06:23:13;;;;;;;19.97;5.23;;;4.10;99.90;;;;;;4890533;29;20063;-94
2023/12/16 06:25:48;;;;;;;16.97;5.00;;;5.40;99.90;;;;;;4887723;29;20044;-95
2023/12/16 06:28:14;;;;;;;14.93;4.43;;;6.10;99.90;;;;;;4888723;29;20112;-95
2023/12/16 06:30:46;;;;;;;20.03;5.23;;;6.20;99.90;;;;;;4889613;29;20049;-94
2023/12/16 06:33:23;;;;;;;20.27;5.40;;;4.10;99.90;;;;;;4887572;29;20883;-94
2023/12/16 06:35:50;;;;;;;20.27;5.53;;;5.40;99.90;;;;;;4889921;29;20052;-94
2023/12/16 06:38:25;;;;;;;19.53;5.63;;;6.40;99.90;;;;;;4875670;29;20044;-94
2023/12/16 06:40:51;;;;;;;18.43;6.20;;;6.10;99.90;;;;;;4887618;29;20053;-94
2023/12/16 06:43:58;;;;;;;19.90;5.47;;;5.00;99.90;;;;;;4887631;29;20052;-95
2023/12/16 06:46:32;;;;;;;17.03;4.70;;;6.30;99.90;;;;;;4894562;29;20056;-95
2023/12/16 06:49:03;;;;;;;21.17;6.43;;;5.60;99.90;;;;;;4909579;23;20067;-93
2023/12/16 06:51:29;;;;;;;19.63;5.33;;;6.60;99.90;;;;;;4920437;29;20063;-95
2023/12/16 06:57:37;;;;;;;21.17;7.50;;;6.40;99.90;;;;;;4907994;29;20063;-95
2023/12/16 07:00:03;;;;;;;21.50;5.47;;;5.30;99.90;;;;;;4908743;29;20040;-95
2023/12/16 07:02:32;;;;;;;21.60;4.40;;;4.70;99.90;;;;;;4907362;29;20412;-95
2023/12/16 07:04:58;;;;;;;15.43;4.83;;;6.30;99.90;;;;;;4909293;29;20044;-94
2023/12/16 07:07:31;;;;;;;15.17;4.03;;;5.60;99.90;;;;;;4910317;29;20044;-94
2023/12/16 07:09:57;;;;;;;14.73;4.47;;;5.30;99.90;;;;;;4908365;29;20412;-94
2023/12/16 07:12:23;;;;;;;14.47;4.47;;;5.30;99.90;;;;;;4890979;29;20088;-94
2023/12/16 07:14:52;;;;;;;15.83;4.27;;;6.10;99.90;;;;;;4909289;29;20062;-94
2023/12/16 07:17:18;;;;;;;13.30;4.53;;;5.40;99.90;;;;;;4905052;29;20048;-96
2023/12/16 07:20:13;;;;;;;14.77;5.00;;;6.90;99.90;;;;;;4910811;29;20051;-96
2023/12/16 07:22:39;;;;;;;17.83;5.00;;;6.30;99.90;;;;;;4900562;29;20551;-84
2023/12/16 07:25:05;;;;;;;17.93;4.47;;;6.80;99.90;;;;;;4899518;29;20044;-84
2023/12/16 07:27:31;;;;;;;18.77;4.10;;;5.50;99.90;;;;;;4902754;23;20085;-85
2023/12/16 07:30:10;;;;;;;15.47;4.70;;;5.10;99.90;;;;;;4880412;29;20098;-85
2023/12/16 07:36:29;;;;;;;17.53;4.13;;;6.20;99.90;;;;;;4877820;29;20049;-85
2023/12/16 07:41:27;;;;;;;17.40;5.67;;;5.70;99.90;;;;;;4914540;29;20167;-87
2023/12/16 07:44:08;;;;;;;22.50;6.33;;;5.80;99.90;;;;;;4899348;29;20048;-87
2023/12/16 07:46:34;;;;;;;20.40;6.03;;;7.60;99.90;;;;;;4902230;29;20044;-87
2023/12/16 07:49:03;;;;;;;23.57;5.77;;;6.10;99.90;;;;;;4902510;29;20046;-86
2023/12/16 07:51:29;;;;;;;21.60;6.60;;;5.70;99.90;;;;;;4904001;29;20048;-87
2023/12/16 07:54:35;;;;;;;15.63;5.97;;;7.50;99.90;;;;;;4903056;29;20048;-85
2023/12/16 07:57:22;;;;;;;23.47;6.60;;;5.30;99.90;;;;;;4902590;29;20076;-88
2023/12/16 08:00:13;;;;;;;21.13;5.90;;;5.60;99.90;;;;;;4903249;29;20500;-88
2023/12/16 08:02:53;;;;;;;26.20;6.53;;;6.50;99.90;;;;;;4892678;29;20488;-87
2023/12/16 08:09:31;;;;;;;20.03;5.97;;;6.70;99.90;;;;;;4841633;29;20105;-86
2023/12/16 08:15:48;;;;;;;20.93;6.87;;;6.70;99.90;;;;;;4769852;29;20186;-86
2023/12/16 08:18:33;;;;;;;15.00;5.97;;;5.80;99.90;;;;;;4752789;30;20094;-86
2023/12/16 08:21:23;;;;;;;24.20;6.87;;;6.00;99.90;;;;;;4755084;30;20055;-88
2023/12/16 08:30:05;;;;;;;20.93;7.10;;;6.10;99.90;;;;;;5254561;23;20071;-86
2023/12/16 08:32:47;;;;;;;25.83;7.00;;;6.20;99.90;;;;;;4901380;29;20131;-85
2023/12/16 08:41:16;;;;;;;19.63;6.93;;;6.20;99.90;;;;;;4882682;29;20439;-87
2023/12/16 08:43:42;;;;;;;26.50;7.13;;;6.10;99.90;;;;;;4898233;29;20112;-85
2023/12/16 08:46:08;;;;;;;34.00;21.23;;;7.40;99.90;;;;;;4878188;29;20045;-86
2023/12/16 08:48:40;;;;;;;21.07;7.10;;;7.30;99.90;;;;;;4882384;29;20100;-85
2023/12/16 08:51:31;;;;;;;31.50;6.70;;;7.00;99.90;;;;;;4877945;29;20045;-85
2023/12/16 08:53:57;;;;;;;21.30;6.87;;;5.80;99.90;;;;;;4873398;29;20056;-86
2023/12/16 08:56:36;;;;;;;30.10;16.80;;;6.10;99.90;;;;;;4866577;29;20056;-85
2023/12/16 08:59:49;;;;;;;18.70;7.23;;;6.00;99.90;;;;;;4873825;29;20072;-88
2023/12/16 09:03:29;;;;;;;22.10;7.30;;;6.20;99.90;;;;;;4787004;30;20099;-85
2023/12/16 09:06:20;;;;;;;22.30;6.80;;;5.60;99.90;;;;;;4771506;30;20063;-86
2023/12/16 09:08:46;;;;;;;26.43;8.47;;;6.10;99.90;;;;;;4780173;29;20054;-84
2023/12/16 09:11:37;;;;;;;;;;;;;;;;;;;;;
2023/12/16 09:14:41;;;;;;;23.63;8.80;;;6.40;99.90;;;;;;4774633;30;20183;-83
2023/12/16 09:17:22;;;;;;;19.23;9.47;;;6.20;99.90;;;;;;4771611;30;20062;-85
2023/12/16 09:19:47;;;;;;;22.70;9.33;;;7.70;99.90;;;;;;4771078;30;20055;-87
2023/12/16 09:22:19;;;;;;;26.13;8.07;;;7.30;99.90;;;;;;4837951;23;20523;-84
2023/12/16 09:24:48;;;;;;;23.00;7.17;;;7.00;99.90;;;;;;4900729;29;20181;-83
2023/12/16 09:27:51;;;;;;;22.93;8.90;;;7.40;99.90;;;;;;4917663;29;20059;-84
2023/12/16 09:30:19;;;;;;;25.97;9.90;;;7.50;99.90;;;;;;4901120;29;20060;-84
2023/12/16 09:32:47;;;;;;;28.77;14.03;;;6.30;99.90;;;;;;4896323;29;20048;-84
2023/12/16 09:35:16;;;;;;;23.60;7.07;;;7.20;99.90;;;;;;4900001;29;20096;-84
2023/12/16 09:37:42;;;;;;;18.07;6.53;;;8.00;99.90;;;;;;4894270;29;20131;-84
2023/12/16 09:40:11;;;;;;;18.03;5.63;;;8.40;99.90;;;;;;4895448;29;20128;-85
2023/12/16 09:43:24;;;;;;;18.00;6.97;;;6.70;99.90;;;;;;4900920;29;20048;-85
2023/12/16 09:46:04;;;;;;;17.67;4.73;;;6.30;99.90;;;;;;4898088;29;20054;-86
2023/12/16 09:48:46;;;;;;;20.13;7.07;;;7.00;99.90;;;;;;4899622;29;20101;-85
2023/12/16 09:51:26;;;;;;;24.23;7.30;;;6.60;99.90;;;;;;4820305;29;20081;-86
2023/12/16 09:53:53;;;;;;;22.50;8.10;;;6.40;99.90;;;;;;4818089;29;20150;-85
2023/12/16 09:56:39;;;;;;;17.73;8.10;;;6.60;99.90;;;;;;4860595;29;20061;-86
2023/12/16 09:59:16;;;;;;;26.07;8.43;;;6.90;99.90;;;;;;4889466;29;20044;-87
2023/12/16 10:02:34;;;;;;;21.73;8.53;;;6.80;99.90;;;;;;4916041;29;20512;-87
2023/12/16 10:05:16;;;;;;;24.43;7.60;;;6.20;99.90;;;;;;4874093;29;20052;-87
2023/12/16 10:07:41;;;;;;;24.47;6.93;;;6.70;99.90;;;;;;4900364;29;20052;-86
2023/12/16 10:10:12;;;;;;;21.90;6.80;;;6.70;99.90;;;;;;4898122;29;20047;-86
2023/12/16 10:19:17;;;;;;;24.90;7.60;;;7.70;99.90;;;;;;4856547;29;20056;-86
2023/12/16 10:21:43;;;;;;;23.77;7.53;;;6.50;99.90;;;;;;4880488;29;20057;-85
2023/12/16 10:25:14;;;;;;;23.53;7.87;;;7.10;99.90;;;;;;4879561;29;20059;-85
2023/12/16 10:28:40;;;;;;;26.83;7.53;;;6.00;99.90;;;;;;4879515;29;20060;-83
2023/12/16 10:31:06;;;;;;;33.50;8.37;;;7.70;99.90;;;;;;4880256;29;20056;-84
2023/12/16 10:37:30;;;;;;;25.63;7.87;;;7.50;99.90;;;;;;4905397;23;20067;-84
2023/12/16 10:40:03;;;;;;;23.95;8.02;;;7.90;99.90;;;;;;4899734;29;20055;-83
2023/12/16 10:42:50;;;;;;;26.47;8.53;;;6.70;99.90;;;;;;4900275;29;20048;-84
2023/12/16 10:45:38;;;;;;;24.23;8.97;;;6.90;99.90;;;;;;4899227;29;20068;-84
2023/12/16 10:48:19;;;;;;;25.47;8.77;;;7.40;99.90;;;;;;4899768;29;20393;-84
2023/12/16 10:50:55;;;;;;;34.67;9.37;;;6.80;99.90;;;;;;4899036;29;20111;-83
2023/12/16 10:54:09;;;;;;;24.40;9.23;;;8.30;99.90;;;;;;4900481;29;20048;-86
2023/12/16 10:57:01;;;;;;;;;;;;;;;;;;;;;
2023/12/16 11:00:20;;;;;;;24.50;9.10;;;8.10;99.90;;;;;;4909688;29;20412;-84
2023/12/16 11:03:05;;;;;;;26.75;9.70;;;6.70;99.90;;;;;;4898514;29;20055;-83
2023/12/16 11:05:42;;;;;;;34.73;11.50;;;6.70;99.90;;;;;;4881524;29;20113;-84
2023/12/16 11:08:09;;;;;;;29.43;11.40;;;6.90;99.90;;;;;;4880944;29;20056;-83
2023/12/16 11:11:12;;;;;;;27.43;10.23;;;7.30;99.90;;;;;;4912150;29;20099;-85
2023/12/16 11:13:50;;;;;;;27.17;11.00;;;6.50;99.90;;;;;;4898562;29;20059;-84
2023/12/16 11:17:00;;;;;;;33.60;10.63;;;6.80;99.90;;;;;;4899154;29;20044;-83
2023/12/16 11:19:46;;;;;;;29.60;10.80;;;7.00;99.90;;;;;;4898312;29;20127;-83
2023/12/16 11:22:24;;;;;;;34.67;11.93;;;6.70;99.90;;;;;;4901711;29;20365;-84
2023/12/16 11:24:57;;;;;;;30.77;12.10;;;8.70;99.90;;;;;;4902862;29;20131;-83
2023/12/16 11:27:29;;;;;;;33.10;11.43;;;7.30;99.90;;;;;;4901970;29;20047;-83
2023/12/16 11:33:57;;;;;;;34.60;12.03;;;6.40;99.90;;;;;;4934731;23;20421;-83
2023/12/16 11:37:03;;;;;;;34.53;12.23;;;6.80;99.90;;;;;;4903168;29;20058;-85
2023/12/16 11:40:16;;;;;;;37.70;11.83;;;7.60;99.90;;;;;;4902964;29;20095;-85
2023/12/16 11:42:46;;;;;;;27.43;9.27;;;8.20;99.90;;;;;;4903998;29;20059;-83
2023/12/16 11:45:50;;;;;;;22.07;9.03;;;8.70;99.90;;;;;;4902272;29;20056;-84
2023/12/16 11:48:19;;;;;;;24.38;9.60;;;7.10;99.90;;;;;;4809877;29;20141;-84
2023/12/16 11:50:46;;;;;;;23.53;8.60;;;6.50;99.90;;;;;;4809259;29;20058;-84
2023/12/16 11:53:18;;;;;;;24.33;9.13;;;8.20;99.90;;;;;;4824486;29;20055;-84
2023/12/16 11:58:09;;;;;;;26.80;9.53;;;7.30;99.90;;;;;;4966500;23;20080;-84
2023/12/16 12:00:41;;;;;;;25.33;9.63;;;8.90;99.90;;;;;;4902996;29;20389;-86
2023/12/16 12:13:29;;;;;;;24.57;9.27;;;7.20;99.90;;;;;;4864437;29;20413;-87
2023/12/16 12:18:42;;;;;;;23.23;9.30;;;7.50;99.90;;;;;;5011855;23;20071;-86
2023/12/16 12:21:14;;;;;;;22.17;9.17;;;7.20;99.90;;;;;;4901526;29;20052;-87
2023/12/16 12:23:43;;;;;;;27.60;9.63;;;8.50;99.90;;;;;;4901829;29;20040;-88
2023/12/16 12:26:26;;;;;;;25.77;13.17;;;7.60;99.90;;;;;;4901759;29;20564;-86
2023/12/16 12:32:20;;;;;;;16.75;7.60;;;7.80;99.90;;;;;;5157886;23;20512;-83
2023/12/16 12:34:58;;;;;;;20.37;7.53;;;7.60;99.90;;;;;;4902219;29;20084;-85
2023/12/16 12:37:24;;;;;;;25.43;9.43;;;8.10;99.90;;;;;;4905041;29;20611;-85
2023/12/16 12:46:44;;;;;;;25.43;11.50;;;8.20;99.90;;;;;;4972601;23;20456;-85
2023/12/16 12:49:10;;;;;;;19.73;8.83;;;9.00;99.90;;;;;;4900927;29;20503;-86
2023/12/16 12:51:52;;;;;;;23.73;10.60;;;7.50;99.90;;;;;;4900759;29;20036;-85
2023/12/16 12:54:20;;;;;;;19.20;8.53;;;7.30;99.90;;;;;;4901851;29;20087;-85
2023/12/16 12:57:22;;;;;;;22.47;8.77;;;6.60;99.90;;;;;;4900979;29;20048;-83
2023/12/16 12:59:48;;;;;;;24.33;10.33;;;7.60;99.90;;;;;;4885218;29;20136;-83
2023/12/16 13:02:13;;;;;;;21.20;9.57;;;7.40;99.90;;;;;;4901070;29;20135;-83
2023/12/16 13:04:58;;;;;;;26.30;12.60;;;7.90;99.90;;;;;;4896927;29;20064;-83
2023/12/16 13:07:23;;;;;;;;;;;7.30;99.90;;;;;;4882715;29;20056;-83
2023/12/16 13:09:49;;;;;;;24.87;10.53;;;8.30;99.90;;;;;;4882546;29;20290;-85
2023/12/16 13:12:15;;;;;;;21.70;8.80;;;8.50;99.90;;;;;;4882221;29;20056;-84
2023/12/16 13:14:45;;;;;;;26.50;10.23;;;7.50;99.90;;;;;;4882995;29;20469;-86
2023/12/16 13:17:32;;;;;;;21.03;9.33;;;8.00;99.90;;;;;;4899594;29;20048;-86
2023/12/16 13:19:57;;;;;;;24.27;10.00;;;9.30;99.90;;;;;;4881578;29;20115;-86
2023/12/16 13:22:23;;;;;;;22.30;10.30;;;7.50;99.90;;;;;;4882183;29;20060;-86
2023/12/16 13:24:56;;;;;;;22.10;7.87;;;7.50;99.90;;;;;;4898992;29;20481;-87
2023/12/16 13:27:31;;;;;;;21.10;8.43;;;7.30;99.90;;;;;;4898413;29;20084;-87
2023/12/16 13:30:12;;;;;;;19.27;9.67;;;7.40;99.90;;;;;;4882221;29;20124;-85
2023/12/16 13:32:50;;;;;;;25.80;12.00;;;7.70;99.90;;;;;;4881185;29;20053;-88
2023/12/16 13:35:16;;;;;;;30.97;11.53;;;7.40;99.90;;;;;;4886323;29;20115;-88
2023/12/16 13:37:41;;;;;;;31.23;14.47;;;7.60;99.90;;;;;;4901511;29;20519;-88
2023/12/16 13:40:22;;;;;;;30.10;11.63;;;7.60;99.90;;;;;;4911274;23;20048;-85
2023/12/16 13:42:49;;;;;;;27.00;10.10;;;7.70;99.90;;;;;;4883960;29;20060;-87
2023/12/16 13:45:14;;;;;;;24.57;11.10;;;8.20;99.90;;;;;;4880838;29;20048;-86
2023/12/16 13:47:40;;;;;;;25.87;9.17;;;7.80;99.90;;;;;;4881092;29;20139;-86
2023/12/16 13:50:06;;;;;;;25.33;10.30;;;7.50;99.90;;;;;;4882350;29;20048;-86
2023/12/16 13:52:49;;;;;;;22.33;9.77;;;7.70;99.90;;;;;;4882702;29;20051;-90
2023/12/16 13:55:21;;;;;;;20.90;9.23;;;8.30;99.90;;;;;;4881755;29;20438;-87
2023/12/16 13:57:56;;;;;;;25.77;9.17;;;9.00;99.90;;;;;;4882604;29;20513;-88
2023/12/16 14:00:43;;;;;;;24.07;9.70;;;7.80;99.90;;;;;;4882092;29;20109;-86
2023/12/16 14:03:21;;;;;;;23.90;10.10;;;9.10;99.90;;;;;;4881519;29;20049;-86
2023/12/16 14:05:47;;;;;;;25.17;10.27;;;7.60;99.90;;;;;;4881739;29;20549;-87
2023/12/16 14:08:13;;;;;;;20.87;9.20;;;7.60;99.90;;;;;;4865627;29;20045;-83
2023/12/16 14:10:38;;;;;;;24.37;10.10;;;8.90;99.90;;;;;;4881902;29;20150;-86
2023/12/16 14:13:13;;;;;;;23.73;9.43;;;9.60;99.90;;;;;;4881065;29;20135;-85
2023/12/16 14:15:54;;;;;;;23.20;8.80;;;7.90;99.90;;;;;;4880547;29;20087;-86
2023/12/16 14:18:27;;;;;;;29.40;9.63;;;8.00;99.90;;;;;;4971015;23;20532;-86
2023/12/16 14:20:53;;;;;;;24.33;8.68;;;8.00;99.90;;;;;;4895995;29;20048;-85
2023/12/16 14:23:19;;;;;;;27.30;10.47;;;8.00;99.90;;;;;;4880656;29;20544;-87
2023/12/16 14:25:51;;;;;;;21.60;8.93;;;8.10;99.90;;;;;;4898612;29;20512;-87
2023/12/16 14:28:17;;;;;;;22.73;8.70;;;9.10;99.90;;;;;;4905774;23;20521;-90
2023/12/16 14:30:45;;;;;;;26.77;8.90;;;9.60;99.90;;;;;;4900056;29;20058;-87
2023/12/16 14:33:32;;;;;;;25.00;9.13;;;9.20;99.90;;;;;;4899465;29;20040;-87
2023/12/16 14:36:07;;;;;;;23.23;9.23;;;9.40;99.90;;;;;;4899492;29;20114;-87
2023/12/16 14:38:34;;;;;;;23.33;8.93;;;8.10;99.90;;;;;;4900443;29;20052;-86
2023/12/16 14:41:00;;;;;;;21.90;8.40;;;9.50;99.90;;;;;;4902639;29;20055;-87
2023/12/16 14:43:25;;;;;;;25.33;9.20;;;9.80;99.90;;;;;;4900667;29;20052;-87
2023/12/16 14:45:51;;;;;;;26.70;9.37;;;8.60;99.90;;;;;;4899280;29;20499;-86
2023/12/16 14:48:19;;;;;;;27.00;9.70;;;9.50;99.90;;;;;;4901523;29;20048;-86
2023/12/16 14:50:45;;;;;;;23.03;9.20;;;9.30;99.90;;;;;;4899166;29;20175;-86
2023/12/16 14:53:14;;;;;;;21.93;9.03;;;7.90;99.90;;;;;;4899753;29;20127;-86
2023/12/16 14:55:48;;;;;;;25.30;8.80;;;9.40;99.90;;;;;;4899707;29;20044;-88
2023/12/16 14:58:14;;;;;;;25.77;9.33;;;9.60;99.90;;;;;;4898407;29;20086;-87
2023/12/16 15:03:15;;;;;;;23.37;8.93;;;8.10;99.90;;;;;;5003390;23;20072;-86
2023/12/16 15:05:41;;;;;;;20.83;8.27;;;9.40;99.90;;;;;;4893808;29;20502;-85
2023/12/16 15:08:13;;;;;;;23.10;8.93;;;9.80;99.90;;;;;;4898636;29;20060;-86
2023/12/16 15:10:57;;;;;;;27.87;10.13;;;8.80;99.90;;;;;;4898774;29;20048;-86
2023/12/16 15:13:22;;;;;;;29.17;13.25;;;7.90;99.90;;;;;;4896232;29;20060;-85
2023/12/16 15:15:54;;;;;;;29.67;12.87;;;8.10;99.90;;;;;;4880479;29;20140;-89
2023/12/16 15:18:35;;;;;;;30.00;12.47;;;9.70;99.90;;;;;;4889740;29;20405;-87
2023/12/16 15:21:19;;;;;;;33.97;15.23;;;8.60;99.90;;;;;;4885883;29;20049;-88
2023/12/16 15:23:47;;;;;;;21.65;9.43;;;9.30;99.90;;;;;;4882542;29;20144;-84
2023/12/16 15:26:13;;;;;;;26.97;12.67;;;8.80;99.90;;;;;;4891551;29;20504;-85
2023/12/16 15:28:39;;;;;;;22.17;8.85;;;8.80;99.90;;;;;;4892284;29;20052;-84
2023/12/16 15:31:17;;;;;;;26.40;9.23;;;8.50;99.90;;;;;;4880357;29;20048;-84
2023/12/16 15:33:42;;;;;;;28.40;10.03;;;8.30;99.90;;;;;;4895795;29;20052;-84
2023/12/16 15:36:30;;;;;;;23.67;10.03;;;9.30;99.90;;;;;;4892306;29;20052;-86
2023/12/16 15:38:59;;;;;;;25.30;10.60;;;8.20;99.90;;;;;;4895685;29;20103;-85
2023/12/16 15:41:39;;;;;;;33.20;17.40;;;8.80;99.90;;;;;;4915220;29;20070;-84
2023/12/16 15:44:08;;;;;;;29.87;13.70;;;7.70;99.90;;;;;;4894514;29;20049;-85
2023/12/16 15:46:50;;;;;;;23.10;9.40;;;8.70;99.90;;;;;;4879643;29;20501;-84
2023/12/16 15:49:19;;;;;;;24.50;10.93;;;9.30;99.90;;;;;;4884764;29;20065;-84
2023/12/16 15:51:57;;;;;;;24.35;11.48;;;7.90;99.90;;;;;;4879718;29;20064;-84
2023/12/16 15:54:38;;;;;;;29.40;15.50;;;9.10;99.90;;;;;;4912314;29;20066;-84
2023/12/16 15:57:03;;;;;;;23.67;9.20;;;8.00;99.90;;;;;;4898632;29;20142;-84
2023/12/16 15:59:47;;;;;;;32.58;16.67;;;8.70;99.90;;;;;;4899095;29;20412;-84
2023/12/16 16:02:13;;;;;;;27.67;10.73;;;8.30;99.90;;;;;;4897820;29;20509;-84
2023/12/16 16:04:53;;;;;;;28.77;13.20;;;9.40;99.90;;;;;;4899558;29;20091;-85
2023/12/16 16:07:19;;;;;;;28.23;13.30;;;9.40;99.90;;;;;;4892676;29;20055;-85
2023/12/16 16:10:04;;;;;;;31.33;16.60;;;9.50;99.90;;;;;;4882856;29;20052;-86
2023/12/16 16:12:29;;;;;;;31.07;14.27;;;7.60;99.90;;;;;;4885322;29;20044;-85
2023/12/16 16:14:58;;;;;;;40.90;23.07;;;8.30;99.90;;;;;;4882451;29;20056;-86
2023/12/16 16:18:05;;;;;;;40.03;25.87;;;8.40;99.90;;;;;;4883744;29;20037;-86
2023/12/16 16:20:42;;;;;;;38.43;18.53;;;9.50;99.90;;;;;;4884935;29;20055;-86
2023/12/16 16:23:08;;;;;;;33.77;16.83;;;8.40;99.90;;;;;;4867596;29;20486;-87
2023/12/16 16:25:53;;;;;;;33.37;15.07;;;8.20;99.90;;;;;;4883745;29;20052;-88
2023/12/16 16:28:40;;;;;;;30.30;11.70;;;9.80;99.90;;;;;;4889944;29;20045;-87
2023/12/16 16:31:18;;;;;;;40.87;20.97;;;8.30;99.90;;;;;;4882728;29;20136;-87
2023/12/16 16:33:47;;;;;;;38.97;16.70;;;8.30;99.90;;;;;;4893103;29;20446;-87